createdAt,value
2019-01-03T00:01:06.835Z,1.69
2019-01-03T00:02:16.919Z,1.79
2019-01-03T00:03:27.010Z,1.87
2019-01-03T00:04:37.101Z,1.84
2019-01-03T00:05:47.166Z,1.79
2019-01-03T00:06:57.235Z,1.82
2019-01-03T00:08:07.047Z,1.76
2019-01-03T00:09:17.122Z,1.86
2019-01-03T00:10:27.207Z,1.75
2019-01-03T00:11:37.304Z,1.79
2019-01-03T00:12:47.381Z,1.83
2019-01-03T00:13:57.470Z,1.92
2019-01-03T00:15:07.527Z,1.94
2019-01-03T00:16:17.659Z,1.93
2019-01-03T00:17:27.721Z,1.9
2019-01-03T00:18:37.810Z,1.97
2019-01-03T00:19:47.887Z,1.94
2019-01-03T00:20:57.953Z,2.05
2019-01-03T00:22:08.017Z,1.98
2019-01-03T00:23:17.826Z,2.08
2019-01-03T00:24:27.924Z,2.13
2019-01-03T00:25:37.969Z,2.05
2019-01-03T00:26:53.561Z,2.13
2019-01-03T00:28:03.969Z,2.15
2019-01-03T00:29:14.095Z,2.16
2019-01-03T00:30:24.209Z,2.16
2019-01-03T00:31:34.275Z,2.15
2019-01-03T00:32:44.342Z,2.16
2019-01-03T00:33:54.452Z,2.16
2019-01-03T00:35:04.499Z,2.09
2019-01-03T00:36:14.567Z,2.11
2019-01-03T00:37:24.376Z,2.12
2019-01-03T00:38:34.443Z,2.05
2019-01-03T00:39:44.484Z,2.2
2019-01-03T00:40:54.532Z,2.12
2019-01-03T00:42:04.338Z,2.16
2019-01-03T00:43:14.160Z,2.2
2019-01-03T00:44:24.205Z,2.23
2019-01-03T00:45:34.284Z,2.29
2019-01-03T00:46:44.370Z,2.29
2019-01-03T00:47:54.439Z,2.31
2019-01-03T00:49:04.239Z,2.3
2019-01-03T00:50:14.281Z,2.27
2019-01-03T00:51:24.378Z,2.31
2019-01-03T00:52:34.421Z,2.3
2019-01-03T00:53:44.244Z,2.3
2019-01-03T00:54:54.318Z,2.34
2019-01-03T00:56:04.378Z,2.38
2019-01-03T00:57:14.446Z,2.34
2019-01-03T00:58:24.249Z,2.31
2019-01-03T00:59:34.300Z,2.18
2019-01-03T01:00:44.101Z,2.2
2019-01-03T01:01:53.891Z,2.06
2019-01-03T01:03:03.944Z,2.02
2019-01-03T01:04:13.493Z,2.04
2019-01-03T01:05:23.320Z,1.94
2019-01-03T01:06:33.417Z,1.87
2019-01-03T01:07:43.502Z,1.93
2019-01-03T01:08:53.589Z,1.89
2019-01-03T01:10:04.148Z,1.97
2019-01-03T01:11:14.200Z,1.94
2019-01-03T01:12:24.260Z,2.05
2019-01-03T01:13:34.311Z,1.98
2019-01-03T01:14:44.108Z,2.01
2019-01-03T01:15:53.910Z,2.02
2019-01-03T01:17:04.967Z,2.02
2019-01-03T01:18:14.773Z,2.05
2019-01-03T01:19:24.585Z,2.06
2019-01-03T01:20:35.103Z,1.98
2019-01-03T01:21:45.165Z,2.01
2019-01-03T01:22:55.229Z,1.98
2019-01-03T01:24:05.296Z,2.01
2019-01-03T01:25:15.108Z,1.92
2019-01-03T01:26:25.155Z,1.97
2019-01-03T01:27:35.232Z,1.9
2019-01-03T01:28:45.026Z,1.94
2019-01-03T01:29:54.821Z,1.93
2019-01-03T01:31:04.913Z,1.87
2019-01-03T01:32:14.969Z,1.92
2019-01-03T01:33:25.044Z,1.9
2019-01-03T01:34:34.854Z,1.92
2019-01-03T01:35:44.951Z,1.92
2019-01-03T01:36:55.023Z,1.89
2019-01-03T01:38:05.689Z,1.82
2019-01-03T01:39:15.491Z,1.78
2019-01-03T01:40:25.548Z,1.86
2019-01-03T01:41:35.600Z,1.65
2019-01-03T01:42:45.669Z,1.75
2019-01-03T01:43:55.738Z,1.79
2019-01-03T01:45:05.809Z,1.71
2019-01-03T01:46:15.866Z,1.75
2019-01-03T01:47:25.955Z,1.65
2019-01-03T01:48:35.815Z,1.75
2019-01-03T01:49:45.881Z,1.76
2019-01-03T01:50:55.946Z,1.71
2019-01-03T01:52:06.014Z,1.83
2019-01-03T01:53:16.095Z,1.69
2019-01-03T01:54:26.175Z,1.75
2019-01-03T01:55:36.253Z,1.72
2019-01-03T01:56:46.322Z,1.76
2019-01-03T01:57:56.371Z,1.87
2019-01-03T01:59:06.646Z,1.82
2019-01-03T02:00:17.075Z,1.82
2019-01-03T02:01:26.879Z,1.86
2019-01-03T02:02:36.921Z,1.84
2019-01-03T02:03:46.726Z,1.89
2019-01-03T02:04:56.792Z,1.82
2019-01-03T02:06:06.865Z,1.93
2019-01-03T02:07:16.960Z,1.97
2019-01-03T02:08:26.750Z,1.94
2019-01-03T02:09:36.551Z,1.93
2019-01-03T02:10:46.603Z,1.98
2019-01-03T02:11:56.667Z,1.97
2019-01-03T02:13:06.483Z,1.93
2019-01-03T02:14:16.545Z,1.87
2019-01-03T02:15:27.346Z,1.89
2019-01-03T02:16:37.400Z,1.89
2019-01-03T02:17:47.453Z,1.83
2019-01-03T02:18:57.278Z,1.82
2019-01-03T02:20:07.449Z,1.87
2019-01-03T02:21:17.510Z,1.84
2019-01-03T02:22:27.557Z,1.86
2019-01-03T02:23:37.613Z,1.82
2019-01-03T02:24:47.661Z,1.87
2019-01-03T02:25:57.464Z,1.93
2019-01-03T02:27:07.522Z,1.92
2019-01-03T02:28:17.585Z,1.84
2019-01-03T02:29:27.667Z,1.92
2019-01-03T02:30:37.473Z,1.83
2019-01-03T02:31:47.557Z,1.83
2019-01-03T02:32:57.365Z,1.83
2019-01-03T02:34:07.434Z,1.79
2019-01-03T02:35:17.343Z,1.79
2019-01-03T02:36:27.399Z,1.83
2019-01-03T02:37:37.434Z,1.84
2019-01-03T02:38:47.482Z,1.87
2019-01-03T02:39:57.268Z,1.78
2019-01-03T02:41:07.356Z,1.79
2019-01-03T02:42:17.158Z,1.78
2019-01-03T02:43:27.222Z,1.79
2019-01-03T02:44:37.034Z,1.83
2019-01-03T02:45:46.845Z,1.83
2019-01-03T02:46:56.650Z,1.79
2019-01-03T02:48:06.781Z,1.84
2019-01-03T02:49:16.825Z,1.92
2019-01-03T02:50:26.630Z,1.94
2019-01-03T02:51:36.692Z,1.98
2019-01-03T02:52:46.512Z,1.84
2019-01-03T02:53:56.039Z,1.87
2019-01-03T02:55:06.127Z,1.79
2019-01-03T02:56:15.908Z,1.83
2019-01-03T02:57:25.957Z,1.76
2019-01-03T02:58:36.025Z,1.79
2019-01-03T02:59:46.090Z,1.82
2019-01-03T03:00:56.154Z,1.78
2019-01-03T03:02:06.199Z,1.78
2019-01-03T03:34:46.854Z,0.16
2019-01-03T03:35:56.649Z,0.21
2019-01-03T03:37:07.475Z,0.27
2019-01-03T03:38:17.528Z,0.27
2019-01-03T03:39:27.582Z,0.39
2019-01-03T03:40:37.694Z,0.39
2019-01-03T03:41:47.522Z,0.61
2019-01-03T03:42:57.316Z,0.66
2019-01-03T03:44:07.139Z,0.84
2019-01-03T03:45:16.933Z,0.86
2019-01-03T03:46:27.021Z,1.03
2019-01-03T03:47:37.093Z,1.11
2019-01-03T03:48:46.906Z,1.21
2019-01-03T03:49:56.969Z,1.32
2019-01-03T03:51:07.054Z,1.44
2019-01-03T03:52:17.189Z,1.56
2019-01-03T03:53:27.265Z,1.75
2019-01-03T03:54:37.340Z,1.71
2019-01-03T03:55:47.413Z,1.78
2019-01-03T03:56:57.486Z,1.75
2019-01-03T03:58:07.534Z,1.82
2019-01-03T03:59:17.604Z,1.89
2019-01-03T04:00:27.707Z,1.93
2019-01-03T04:01:37.791Z,1.98
2019-01-03T04:02:47.870Z,2.02
2019-01-03T04:03:57.918Z,1.98
2019-01-03T04:05:08.746Z,2.04
2019-01-03T04:06:18.313Z,1.98
2019-01-03T04:07:28.379Z,2.13
2019-01-03T04:08:38.745Z,2.13
2019-01-03T04:09:48.414Z,2.08
2019-01-03T04:10:58.473Z,2.22
2019-01-03T04:12:08.402Z,2.16
2019-01-03T04:13:18.484Z,2.13
2019-01-03T04:14:28.512Z,2.18
2019-01-03T04:15:38.617Z,2.24
2019-01-03T04:16:48.460Z,2.23
2019-01-03T04:17:58.529Z,2.36
2019-01-03T04:19:08.592Z,2.27
2019-01-03T04:20:18.647Z,2.33
2019-01-03T04:21:28.730Z,2.22
2019-01-03T04:22:38.843Z,2.31
2019-01-03T04:23:48.930Z,2.29
2019-01-03T04:24:58.752Z,2.29
2019-01-03T04:26:08.805Z,2.3
2019-01-03T04:27:18.955Z,2.26
2019-01-03T04:28:29.033Z,2.34
2019-01-03T04:29:38.842Z,2.31
2019-01-03T04:30:48.652Z,2.31
2019-01-03T04:31:58.713Z,2.34
2019-01-03T04:33:08.796Z,2.41
2019-01-03T04:34:18.871Z,2.4
2019-01-03T04:35:28.668Z,2.42
2019-01-03T04:36:38.456Z,2.44
2019-01-03T04:37:48.511Z,2.45
2019-01-03T04:38:58.296Z,2.42
2019-01-03T04:40:08.218Z,2.44
2019-01-03T04:41:18.304Z,2.36
2019-01-03T04:42:28.359Z,2.4
2019-01-03T04:43:38.436Z,2.44
2019-01-03T04:44:48.575Z,2.47
2019-01-03T04:45:58.648Z,2.45
2019-01-03T04:47:08.714Z,2.41
2019-01-03T04:48:18.777Z,2.4
2019-01-03T04:49:28.599Z,2.36
2019-01-03T04:50:38.652Z,2.45
2019-01-03T04:51:48.732Z,2.36
2019-01-03T04:52:58.789Z,2.38
2019-01-03T04:54:08.839Z,2.44
2019-01-03T04:55:18.912Z,2.4
2019-01-03T04:56:28.971Z,2.4
2019-01-03T04:57:38.791Z,2.36
2019-01-03T04:58:48.603Z,2.29
2019-01-03T04:59:58.668Z,2.34
2019-01-03T05:01:09.402Z,2.3
2019-01-03T05:02:19.274Z,2.3
2019-01-03T05:03:29.334Z,2.26
2019-01-03T05:04:39.399Z,2.36
2019-01-03T05:05:49.475Z,2.31
2019-01-03T05:06:59.532Z,2.34
2019-01-03T05:08:09.587Z,2.3
2019-01-03T05:09:19.655Z,2.34
2019-01-03T05:10:29.726Z,2.31
2019-01-03T05:11:39.781Z,2.4
2019-01-03T05:12:49.833Z,2.33
2019-01-03T05:13:59.911Z,2.36
2019-01-03T05:15:10.018Z,2.4
2019-01-03T05:16:20.108Z,2.34
2019-01-03T05:17:30.181Z,2.42
2019-01-03T05:18:40.014Z,2.38
2019-01-03T05:19:50.127Z,2.3
2019-01-03T05:21:00.245Z,2.36
2019-01-03T05:22:10.056Z,2.3
2019-01-03T05:23:20.138Z,2.31
2019-01-03T05:24:30.200Z,2.36
2019-01-03T05:25:40.271Z,2.27
2019-01-03T05:26:50.358Z,2.3
2019-01-03T05:28:00.579Z,2.33
2019-01-03T05:29:10.626Z,2.33
2019-01-03T05:30:22.779Z,2.31
2019-01-03T05:31:32.847Z,2.29
2019-01-03T05:32:42.912Z,2.3
2019-01-03T05:33:52.970Z,2.33
2019-01-03T05:35:04.670Z,2.34
2019-01-03T05:36:14.735Z,2.33
2019-01-03T05:37:24.794Z,2.38
2019-01-03T05:38:34.861Z,2.34
2019-01-03T05:39:44.988Z,2.29
2019-01-03T05:40:54.877Z,2.29
2019-01-03T05:42:04.961Z,2.34
2019-01-03T05:43:15.074Z,2.33
2019-01-03T05:44:25.154Z,2.27
2019-01-03T05:45:35.210Z,2.27
2019-01-03T05:46:45.278Z,2.31
2019-01-03T05:47:55.357Z,2.36
2019-01-03T05:49:05.457Z,2.31
2019-01-03T05:50:15.272Z,2.33
2019-01-03T05:51:25.336Z,2.33
2019-01-03T05:52:35.455Z,2.38
2019-01-03T05:53:45.523Z,2.29
2019-01-03T05:54:55.595Z,2.26
2019-01-03T05:56:05.405Z,2.36
2019-01-03T05:57:15.210Z,2.36
2019-01-03T05:58:25.272Z,2.34
2019-01-03T05:59:35.347Z,2.34
2019-01-03T06:00:45.415Z,2.34
2019-01-03T06:01:55.497Z,2.3
2019-01-03T06:03:06.090Z,2.33
2019-01-03T06:04:16.154Z,2.36
2019-01-03T06:05:26.220Z,2.29
2019-01-03T06:06:36.113Z,2.29
2019-01-03T06:07:46.158Z,2.31
2019-01-03T06:08:55.972Z,2.31
2019-01-03T06:10:06.149Z,2.33
2019-01-03T06:11:16.215Z,2.33
2019-01-03T06:12:26.030Z,2.31
2019-01-03T06:13:36.082Z,2.33
2019-01-03T06:14:46.141Z,2.27
2019-01-03T06:15:55.954Z,2.27
2019-01-03T06:17:05.767Z,2.26
2019-01-03T06:18:15.817Z,2.23
2019-01-03T06:19:25.901Z,2.2
2019-01-03T06:20:35.951Z,2.26
2019-01-03T06:21:46.002Z,2.31
2019-01-03T06:22:56.062Z,2.33
2019-01-03T06:24:05.879Z,2.34
2019-01-03T06:25:15.958Z,2.33
2019-01-03T06:26:26.031Z,2.29
2019-01-03T06:27:36.113Z,2.33
2019-01-03T06:28:45.915Z,2.31
2019-01-03T06:29:56.007Z,2.3
2019-01-03T06:31:06.067Z,2.33
2019-01-03T06:32:15.874Z,2.38
2019-01-03T06:33:25.955Z,2.3
2019-01-03T06:34:36.044Z,2.31
2019-01-03T06:35:46.201Z,2.34
2019-01-03T06:36:56.258Z,2.29
2019-01-03T06:38:06.343Z,2.27
2019-01-03T06:39:16.406Z,2.34
2019-01-03T06:40:26.442Z,2.34
2019-01-03T06:41:36.497Z,2.27
2019-01-03T06:42:46.557Z,2.27
2019-01-03T06:43:57.087Z,2.33
2019-01-03T06:45:07.188Z,2.33
2019-01-03T06:46:17.235Z,2.36
2019-01-03T06:47:27.301Z,2.34
2019-01-03T06:48:37.368Z,2.4
2019-01-03T06:49:47.424Z,2.38
2019-01-03T06:50:57.216Z,2.4
2019-01-03T06:52:07.266Z,2.34
2019-01-03T06:53:17.307Z,2.38
2019-01-03T06:54:27.105Z,2.42
2019-01-03T06:55:37.162Z,2.38
2019-01-03T06:56:47.226Z,2.47
2019-01-03T06:57:57.279Z,2.49
2019-01-03T06:59:07.942Z,2.49
2019-01-03T07:00:18.413Z,2.58
2019-01-03T07:01:28.466Z,2.59
2019-01-03T07:02:38.536Z,2.7
2019-01-03T07:03:48.617Z,2.7
2019-01-03T07:04:58.676Z,2.6
2019-01-03T07:06:08.739Z,2.73
2019-01-03T07:07:18.795Z,2.72
2019-01-03T07:08:28.864Z,2.81
2019-01-03T07:09:38.905Z,2.72
2019-01-03T07:10:48.706Z,2.77
2019-01-03T07:11:58.785Z,2.8
2019-01-03T07:13:08.567Z,2.77
2019-01-03T07:14:18.623Z,2.8
2019-01-03T07:15:28.698Z,2.76
2019-01-03T07:16:38.779Z,2.83
2019-01-03T07:17:48.848Z,2.77
2019-01-03T07:18:58.909Z,2.81
2019-01-03T07:20:08.972Z,2.78
2019-01-03T07:21:19.029Z,2.77
2019-01-03T07:22:34.912Z,2.87
2019-01-03T07:23:44.962Z,2.91
2019-01-03T07:24:54.760Z,2.88
2019-01-03T07:26:04.825Z,2.91
2019-01-03T07:27:14.878Z,2.88
2019-01-03T07:28:24.930Z,2.85
2019-01-03T07:29:34.986Z,2.85
2019-01-03T07:30:45.058Z,2.78
2019-01-03T07:31:55.135Z,2.85
2019-01-03T07:33:07.305Z,2.88
2019-01-03T07:34:17.107Z,2.9
2019-01-03T07:35:27.159Z,2.87
2019-01-03T07:36:36.964Z,2.81
2019-01-03T07:37:46.770Z,2.9
2019-01-03T07:38:56.838Z,2.84
2019-01-03T07:40:06.893Z,2.91
2019-01-03T07:41:16.943Z,2.96
2019-01-03T07:42:27.026Z,2.91
2019-01-03T07:43:36.844Z,2.99
2019-01-03T07:44:46.646Z,2.98
2019-01-03T07:45:56.753Z,3.03
2019-01-03T07:47:06.808Z,3.13
2019-01-03T07:48:16.882Z,3.2
2019-01-03T07:49:26.952Z,3.26
2019-01-03T07:50:37.001Z,3.3
2019-01-03T07:51:47.166Z,3.37
2019-01-03T07:52:57.232Z,3.3
2019-01-03T07:54:07.029Z,3.32
2019-01-03T07:55:17.080Z,3.37
2019-01-03T07:56:27.147Z,3.43
2019-01-03T07:57:37.211Z,3.48
2019-01-03T07:58:47.009Z,3.48
2019-01-03T07:59:57.054Z,3.53
2019-01-03T08:01:06.672Z,3.53
2019-01-03T08:02:16.743Z,3.58
2019-01-03T08:03:26.813Z,3.61
2019-01-03T08:04:36.625Z,3.72
2019-01-03T08:05:46.682Z,3.74
2019-01-03T08:06:56.738Z,3.76
2019-01-03T08:08:06.814Z,3.74
2019-01-03T08:09:16.864Z,3.86
2019-01-03T08:10:26.905Z,3.82
2019-01-03T08:11:36.977Z,3.85
2019-01-03T08:12:46.840Z,3.82
2019-01-03T08:13:56.622Z,3.86
2019-01-03T08:15:07.357Z,3.85
2019-01-03T08:16:17.407Z,3.86
2019-01-03T08:17:27.461Z,3.85
2019-01-03T08:18:37.521Z,3.94
2019-01-03T08:19:47.593Z,4.07
2019-01-03T08:20:57.700Z,3.97
2019-01-03T08:22:07.501Z,4.11
2019-01-03T08:23:17.563Z,4.17
2019-01-03T08:24:27.373Z,4.2
2019-01-03T08:25:37.441Z,4.1
2019-01-03T08:26:47.248Z,4.21
2019-01-03T08:27:57.301Z,4.18
2019-01-03T08:29:07.397Z,4.15
2019-01-03T08:30:17.440Z,4.24
2019-01-03T08:31:27.498Z,4.17
2019-01-03T08:32:37.574Z,4.17
2019-01-03T08:33:47.630Z,4.18
2019-01-03T08:34:57.435Z,4.24
2019-01-03T08:36:07.495Z,4.22
2019-01-03T08:37:17.359Z,4.22
2019-01-03T08:38:27.191Z,4.14
2019-01-03T08:39:36.999Z,4.28
2019-01-03T08:40:47.055Z,4.28
2019-01-03T08:41:56.621Z,4.28
2019-01-03T08:43:06.429Z,4.15
2019-01-03T08:44:16.546Z,4.21
2019-01-03T08:45:26.369Z,4.17
2019-01-03T08:46:36.420Z,4.15
2019-01-03T08:47:46.495Z,4.11
2019-01-03T08:49:02.962Z,4.2
2019-01-03T08:50:13.025Z,4.22
2019-01-03T08:51:22.836Z,4.21
2019-01-03T08:52:32.913Z,4.29
2019-01-03T08:53:42.722Z,4.32
2019-01-03T08:54:52.784Z,4.3
2019-01-03T08:56:03.744Z,4.17
2019-01-03T08:57:13.798Z,4.36
2019-01-03T08:58:23.610Z,4.26
2019-01-03T08:59:33.662Z,4.32
2019-01-03T09:00:42.952Z,4.32
2019-01-03T09:01:53.005Z,4.38
2019-01-03T09:03:03.061Z,4.44
2019-01-03T09:04:13.117Z,4.36
2019-01-03T09:05:23.182Z,4.47
2019-01-03T09:06:33.223Z,4.4
2019-01-03T09:07:43.295Z,4.46
2019-01-03T09:08:53.357Z,4.42
2019-01-03T09:10:03.609Z,4.51
2019-01-03T09:11:13.681Z,4.57
2019-01-03T09:12:23.223Z,4.51
2019-01-03T09:13:33.267Z,4.58
2019-01-03T09:14:43.340Z,4.61
2019-01-03T09:15:53.411Z,4.71
2019-01-03T09:17:03.488Z,4.71
2019-01-03T09:18:15.329Z,4.85
2019-01-03T09:19:25.139Z,4.87
2019-01-03T09:20:35.223Z,4.95
2019-01-03T09:21:45.289Z,4.85
2019-01-03T09:22:55.340Z,4.95
2019-01-03T09:24:05.525Z,4.85
2019-01-03T09:25:15.322Z,4.79
2019-01-03T09:26:25.387Z,4.71
2019-01-03T09:27:35.424Z,4.58
2019-01-03T09:28:45.489Z,4.57
2019-01-03T09:29:55.590Z,4.56
2019-01-03T09:31:06.783Z,4.57
2019-01-03T09:32:16.912Z,4.58
2019-01-03T09:33:26.971Z,4.69
2019-01-03T09:34:36.785Z,4.83
2019-01-03T09:35:47.266Z,5.06
2019-01-03T09:36:57.327Z,5.34
2019-01-03T09:38:07.150Z,5.54
2019-01-03T09:39:17.229Z,5.72
2019-01-03T09:40:27.052Z,5.85
2019-01-03T09:41:37.165Z,5.87
2019-01-03T09:42:47.212Z,5.92
2019-01-03T09:43:56.996Z,5.85
2019-01-03T09:45:06.893Z,5.77
2019-01-03T09:46:16.927Z,5.81
2019-01-03T09:47:26.545Z,5.77
2019-01-03T09:48:36.605Z,5.8
2019-01-03T09:49:46.405Z,5.64
2019-01-03T09:50:56.222Z,5.69
2019-01-03T09:52:06.279Z,5.63
2019-01-03T09:53:16.396Z,5.54
2019-01-03T09:54:26.245Z,5.48
2019-01-03T09:55:36.050Z,5.46
2019-01-03T09:56:46.109Z,5.34
2019-01-03T09:57:56.150Z,5.36
2019-01-03T09:59:05.960Z,5.33
2019-01-03T10:00:16.579Z,5.26
2019-01-03T10:01:26.638Z,5.16
2019-01-03T10:02:36.725Z,5.23
2019-01-03T10:03:46.847Z,5.2
2019-01-03T10:04:56.649Z,5.21
2019-01-03T10:06:06.714Z,5.28
2019-01-03T10:07:16.826Z,5.26
2019-01-03T10:08:26.864Z,5.28
2019-01-03T10:09:36.675Z,5.18
2019-01-03T10:10:46.719Z,5.18
2019-01-03T10:11:56.783Z,5.1
2019-01-03T10:13:06.843Z,5.09
2019-01-03T10:14:16.909Z,5.1
2019-01-03T10:15:26.966Z,5.28
2019-01-03T10:16:37.022Z,5.48
2019-01-03T10:17:47.067Z,5.59
2019-01-03T10:18:57.122Z,5.67
2019-01-03T10:20:07.197Z,5.8
2019-01-03T10:21:16.979Z,5.82
2019-01-03T10:22:27.032Z,5.8
2019-01-03T10:23:37.114Z,5.99
2019-01-03T10:24:47.200Z,5.88
2019-01-03T10:25:57.254Z,5.95
2019-01-03T10:27:07.338Z,5.95
2019-01-03T10:28:17.488Z,6.1
2019-01-03T10:29:27.551Z,6.09
2019-01-03T10:30:37.625Z,6.17
2019-01-03T10:31:47.436Z,6.14
2019-01-03T10:32:57.218Z,6.02
2019-01-03T10:34:07.269Z,5.87
2019-01-03T10:35:16.824Z,5.89
2019-01-03T10:36:30.037Z,5.78
2019-01-03T10:37:40.108Z,5.73
2019-01-03T10:38:50.170Z,5.67
2019-01-03T10:40:00.289Z,5.78
2019-01-03T10:41:10.411Z,5.78
2019-01-03T10:42:20.454Z,5.78
2019-01-03T10:43:30.254Z,5.78
2019-01-03T10:44:40.322Z,5.75
2019-01-03T10:45:49.883Z,5.78
2019-01-03T10:46:59.698Z,5.73
2019-01-03T10:48:09.787Z,5.78
2019-01-03T10:49:19.619Z,5.91
2019-01-03T10:50:29.434Z,6.13
2019-01-03T10:51:39.598Z,6.24
2019-01-03T10:52:49.421Z,6.2
2019-01-03T10:53:59.478Z,6.14
2019-01-03T10:55:10.117Z,6.06
2019-01-03T10:56:20.198Z,5.87
2019-01-03T10:57:30.334Z,5.81
2019-01-03T10:58:40.406Z,5.59
2019-01-03T10:59:50.986Z,5.59
2019-01-03T11:01:00.869Z,5.46
2019-01-03T11:02:10.425Z,5.44
2019-01-03T11:03:20.540Z,5.27
2019-01-03T11:04:30.601Z,5.41
2019-01-03T11:05:40.678Z,5.31
2019-01-03T11:06:50.749Z,5.26
2019-01-03T11:08:00.815Z,5.3
2019-01-03T11:09:10.935Z,5.2
2019-01-03T11:10:21.011Z,5.13
2019-01-03T11:11:31.084Z,4.98
2019-01-03T11:12:40.921Z,4.78
2019-01-03T11:13:50.717Z,4.72
2019-01-03T11:15:00.783Z,4.65
2019-01-03T11:16:10.844Z,4.6
2019-01-03T11:17:20.906Z,4.56
2019-01-03T11:18:30.956Z,4.53
2019-01-03T11:19:41.006Z,4.39
2019-01-03T11:20:51.060Z,4.17
2019-01-03T11:22:00.878Z,4.24
2019-01-03T11:23:10.950Z,4.29
2019-01-03T11:24:20.749Z,4.32
2019-01-03T11:25:30.818Z,4.21
2019-01-03T11:26:40.935Z,4.14
2019-01-03T11:27:50.998Z,4.29
2019-01-03T11:29:00.558Z,4.46
2019-01-03T11:30:10.364Z,4.53
2019-01-03T11:31:20.440Z,4.71
2019-01-03T11:32:30.498Z,5.09
2019-01-03T11:33:40.558Z,5.26
2019-01-03T11:34:50.613Z,5.41
2019-01-03T11:36:00.720Z,5.48
2019-01-03T11:37:10.777Z,5.36
2019-01-03T11:38:20.822Z,5.27
2019-01-03T11:39:30.907Z,5.09
2019-01-03T11:40:40.990Z,4.97
2019-01-03T11:41:51.069Z,4.83
2019-01-03T11:43:01.143Z,4.71
2019-01-03T11:44:11.218Z,4.78
2019-01-03T11:45:21.278Z,4.71
2019-01-03T11:46:31.099Z,4.66
2019-01-03T11:47:41.188Z,4.72
2019-01-03T11:48:51.277Z,4.61
2019-01-03T11:50:01.440Z,4.57
2019-01-03T11:51:11.496Z,4.65
2019-01-03T11:52:21.296Z,4.64
2019-01-03T11:53:30.605Z,4.68
2019-01-03T11:54:40.147Z,4.57
2019-01-03T11:55:49.963Z,4.66
2019-01-03T11:56:59.520Z,4.61
2019-01-03T11:58:09.581Z,4.69
2019-01-03T11:59:19.662Z,4.71
2019-01-03T12:00:29.753Z,4.66
2019-01-03T12:01:39.835Z,4.61
2019-01-03T12:02:49.937Z,4.69
2019-01-03T12:04:00.020Z,4.83
2019-01-03T12:05:10.387Z,4.76
2019-01-03T12:06:19.950Z,4.74
2019-01-03T12:07:30.010Z,4.75
2019-01-03T12:08:39.547Z,4.66
2019-01-03T12:09:49.621Z,4.71
2019-01-03T12:10:59.686Z,4.76
2019-01-03T12:12:10.177Z,4.72
2019-01-03T12:13:20.251Z,4.83
2019-01-03T12:14:30.055Z,4.74
2019-01-03T12:15:40.116Z,4.75
2019-01-03T12:16:49.925Z,4.83
2019-01-03T12:17:59.712Z,4.74
2019-01-03T12:19:09.886Z,4.85
2019-01-03T12:20:20.010Z,4.79
2019-01-03T12:21:30.086Z,4.76
2019-01-03T12:22:40.169Z,4.74
2019-01-03T12:23:50.235Z,4.74
2019-01-03T12:25:00.310Z,4.66
2019-01-03T12:26:10.441Z,4.6
2019-01-03T12:27:20.263Z,4.64
2019-01-03T12:28:30.366Z,4.56
2019-01-03T12:29:40.193Z,4.65
2019-01-03T12:30:50.265Z,4.58
2019-01-03T12:32:00.067Z,4.64
2019-01-03T12:33:10.174Z,4.61
2019-01-03T12:34:20.248Z,4.69
2019-01-03T12:35:30.051Z,4.61
2019-01-03T12:36:40.146Z,4.65
2019-01-03T12:37:50.213Z,4.64
2019-01-03T12:39:00.253Z,4.68
2019-01-03T12:40:10.313Z,4.68
2019-01-03T12:41:20.147Z,4.66
2019-01-03T12:42:30.245Z,4.72
2019-01-03T12:43:40.050Z,4.72
2019-01-03T12:44:49.867Z,4.65
2019-01-03T12:45:59.673Z,4.61
2019-01-03T12:47:09.744Z,4.58
2019-01-03T12:48:19.796Z,4.53
2019-01-03T12:49:29.939Z,4.44
2019-01-03T12:50:40.023Z,4.4
2019-01-03T12:51:50.090Z,4.39
2019-01-03T12:53:02.369Z,4.38
2019-01-03T12:54:12.429Z,4.38
2019-01-03T12:55:22.544Z,4.18
2019-01-03T12:56:32.607Z,4.3
2019-01-03T12:57:42.677Z,4.18
2019-01-03T12:58:52.762Z,4.18
2019-01-03T13:00:03.404Z,4.14
2019-01-03T13:01:13.945Z,4.17
2019-01-03T13:02:24.034Z,4.12
2019-01-03T13:03:33.826Z,4.02
2019-01-03T13:04:43.925Z,3.99
2019-01-03T13:05:54.051Z,3.97
2019-01-03T13:07:04.128Z,3.86
2019-01-03T13:08:14.194Z,3.89
2019-01-03T13:09:24.278Z,3.92
2019-01-03T13:10:34.085Z,3.81
2019-01-03T13:11:43.929Z,3.79
2019-01-03T13:12:53.978Z,3.75
2019-01-03T13:14:04.051Z,3.75
2019-01-03T13:15:14.122Z,3.67
2019-01-03T13:16:24.194Z,3.6
2019-01-03T13:17:34.017Z,3.57
2019-01-03T13:18:44.099Z,3.63
2019-01-03T13:19:53.964Z,3.53
2019-01-03T13:21:04.752Z,3.61
2019-01-03T13:22:14.826Z,3.53
2019-01-03T13:23:24.890Z,3.54
2019-01-03T13:24:35.003Z,3.53
2019-01-03T13:25:44.800Z,3.49
2019-01-03T13:26:54.885Z,3.4
2019-01-03T13:28:04.960Z,3.45
2019-01-03T13:29:15.031Z,3.46
2019-01-03T13:30:25.087Z,3.48
2019-01-03T13:31:35.149Z,3.56
2019-01-03T13:32:45.207Z,3.54
2019-01-03T13:33:55.285Z,3.67
2019-01-03T13:35:07.203Z,3.76
2019-01-03T13:36:17.276Z,3.78
2019-01-03T13:37:27.340Z,3.79
2019-01-03T13:38:37.406Z,3.84
2019-01-03T13:39:47.470Z,3.84
2019-01-03T13:40:57.533Z,3.82
2019-01-03T13:42:07.589Z,3.71
2019-01-03T13:43:17.378Z,3.69
2019-01-03T13:44:27.456Z,3.71
2019-01-03T13:45:37.544Z,3.64
2019-01-03T13:46:47.635Z,3.79
2019-01-03T13:47:57.745Z,3.81
2019-01-03T13:49:07.805Z,3.79
2019-01-03T13:50:17.864Z,3.92
2019-01-03T13:51:27.919Z,3.89
2019-01-03T13:52:37.733Z,3.97
2019-01-03T13:53:47.825Z,3.97
2019-01-03T13:54:57.618Z,3.96
2019-01-03T13:56:07.414Z,3.99
2019-01-03T13:57:17.461Z,3.99
2019-01-03T13:58:27.279Z,4
2019-01-03T13:59:37.359Z,4
2019-01-03T14:00:47.451Z,4.02
2019-01-03T14:01:57.003Z,4.04
2019-01-03T14:03:07.076Z,3.96
2019-01-03T14:04:17.149Z,3.94
2019-01-03T14:05:27.230Z,3.96
2019-01-03T14:06:37.301Z,3.84
2019-01-03T14:07:47.372Z,3.89
2019-01-03T14:08:57.481Z,3.84
2019-01-03T14:10:07.528Z,3.89
2019-01-03T14:11:17.678Z,3.89
2019-01-03T14:12:27.766Z,3.9
2019-01-03T14:13:37.819Z,3.76
2019-01-03T14:14:47.618Z,3.76
2019-01-03T14:15:57.704Z,3.64
2019-01-03T14:17:07.242Z,3.64
2019-01-03T14:18:17.305Z,3.74
2019-01-03T14:19:27.121Z,3.63
2019-01-03T14:20:37.191Z,3.61
2019-01-03T14:21:47.039Z,3.67
2019-01-03T14:22:56.599Z,3.67
2019-01-03T14:24:08.198Z,3.71
2019-01-03T14:25:18.260Z,3.75
2019-01-03T14:26:28.080Z,3.76
2019-01-03T14:27:37.946Z,3.74
2019-01-03T14:28:48.018Z,3.72
2019-01-03T14:29:58.085Z,3.71
2019-01-03T14:31:08.162Z,3.64
2019-01-03T14:32:18.223Z,3.64
2019-01-03T14:33:28.267Z,3.51
2019-01-03T14:34:38.402Z,3.56
2019-01-03T14:35:48.226Z,3.54
2019-01-03T14:36:58.769Z,3.42
2019-01-03T14:38:08.926Z,3.37
2019-01-03T14:39:18.998Z,3.35
2019-01-03T14:40:29.086Z,3.3
2019-01-03T14:41:39.147Z,3.27
2019-01-03T14:42:48.924Z,3.19
2019-01-03T14:43:58.974Z,3.17
2019-01-03T14:45:09.051Z,3.08
2019-01-03T14:46:18.866Z,3.01
2019-01-03T14:47:28.921Z,2.98
2019-01-03T14:48:38.980Z,2.95
2019-01-03T14:49:49.064Z,2.88
2019-01-03T14:50:59.129Z,2.81
2019-01-03T14:52:09.189Z,2.83
2019-01-03T14:53:19.247Z,2.78
2019-01-03T14:54:29.047Z,2.87
2019-01-03T14:55:39.130Z,2.72
2019-01-03T14:56:49.202Z,2.81
2019-01-03T14:57:59.276Z,2.78
2019-01-03T14:59:09.337Z,2.72
2019-01-03T15:00:19.462Z,2.8
2019-01-03T15:01:29.545Z,2.76
2019-01-03T15:02:39.639Z,2.73
2019-01-03T15:03:49.707Z,2.77
2019-01-03T15:04:59.811Z,2.62
2019-01-03T15:06:09.891Z,2.59
2019-01-03T15:07:19.731Z,2.6
2019-01-03T15:08:29.836Z,2.73
2019-01-03T15:09:39.914Z,2.66
2019-01-03T15:10:49.472Z,2.67
2019-01-03T15:11:59.564Z,2.65
2019-01-03T15:13:09.750Z,2.62
2019-01-03T15:14:19.812Z,2.63
2019-01-03T15:15:29.931Z,2.66
2019-01-03T15:16:40.017Z,2.59
2019-01-03T15:17:49.859Z,2.58
2019-01-03T15:18:59.670Z,2.63
2019-01-03T15:20:09.754Z,2.62
2019-01-03T15:21:19.844Z,2.63
2019-01-03T15:22:29.918Z,2.63
2019-01-03T15:23:39.974Z,2.66
2019-01-03T15:24:50.051Z,2.58
2019-01-03T15:26:00.117Z,2.6
2019-01-03T15:27:09.942Z,2.58
2019-01-03T15:28:19.736Z,2.54
2019-01-03T15:29:29.823Z,2.63
2019-01-03T15:30:39.897Z,2.58
2019-01-03T15:31:49.996Z,2.48
2019-01-03T15:33:00.064Z,2.52
2019-01-03T15:34:09.857Z,2.51
2019-01-03T15:35:19.991Z,2.49
2019-01-03T15:36:30.088Z,2.49
2019-01-03T15:37:40.139Z,2.45
2019-01-03T15:38:50.200Z,2.4
2019-01-03T15:40:00.380Z,2.38
2019-01-03T15:41:10.479Z,2.44
2019-01-03T15:42:20.307Z,2.34
2019-01-03T15:43:30.371Z,2.38
2019-01-03T15:44:40.197Z,2.29
2019-01-03T15:45:50.267Z,2.27
2019-01-03T15:47:00.073Z,2.34
2019-01-03T15:48:10.156Z,2.34
2019-01-03T15:49:20.306Z,2.36
2019-01-03T15:50:30.389Z,2.29
2019-01-03T15:51:40.485Z,2.23
2019-01-03T15:52:50.547Z,2.24
2019-01-03T15:54:00.384Z,2.23
2019-01-03T15:55:10.456Z,2.23
2019-01-03T15:56:20.520Z,2.23
2019-01-03T15:57:30.599Z,2.24
2019-01-03T15:58:40.683Z,2.16
2019-01-03T15:59:50.522Z,2.18
2019-01-03T16:01:00.597Z,2.2
2019-01-03T16:02:10.671Z,2.18
2019-01-03T16:03:20.746Z,2.18
2019-01-03T16:04:30.805Z,2.16
2019-01-03T16:05:40.870Z,2.13
2019-01-03T16:06:50.714Z,2.16